sensor_id;sensor_type;location;lat;lon;timestamp;pressure;altitude;pressure_sealevel;temperature;humidity
73566;BME280;61846;52.970;-3.168;2022-11-03T00:02:10;99138.06;;;10.63;45.72
73566;BME280;61846;52.970;-3.168;2022-11-03T00:04:36;99139.74;;;11.39;44.24
73566;BME280;61846;52.970;-3.168;2022-11-03T00:07:01;99141.73;;;11.08;44.79
73566;BME280;61846;52.970;-3.168;2022-11-03T00:09:27;99136.56;;;11.62;43.72
73566;BME280;61846;52.970;-3.168;2022-11-03T00:11:53;99143.18;;;11.15;45.36
73566;BME280;61846;52.970;-3.168;2022-11-03T00:14:19;99155.67;;;11.48;44.02
73566;BME280;61846;52.970;-3.168;2022-11-03T00:16:44;99152.51;;;11.04;44.69
73566;BME280;61846;52.970;-3.168;2022-11-03T00:19:10;99144.16;;;11.51;43.73
73566;BME280;61846;52.970;-3.168;2022-11-03T00:21:35;99155.35;;;11.05;44.32
73566;BME280;61846;52.970;-3.168;2022-11-03T00:24:00;99147.17;;;11.02;43.95
73566;BME280;61846;52.970;-3.168;2022-11-03T00:26:27;99145.79;;;11.25;44.61
73566;BME280;61846;52.970;-3.168;2022-11-03T00:28:53;99138.66;;;11.83;42.69
73566;BME280;61846;52.970;-3.168;2022-11-03T00:31:18;99146.76;;;11.98;42.75
73566;BME280;61846;52.970;-3.168;2022-11-03T00:33:43;99146.01;;;11.93;42.58
73566;BME280;61846;52.970;-3.168;2022-11-03T00:36:11;99154.57;;;11.84;42.68
73566;BME280;61846;52.970;-3.168;2022-11-03T00:38:34;99154.32;;;11.76;43.44
73566;BME280;61846;52.970;-3.168;2022-11-03T00:41:00;99157.89;;;11.16;43.27
73566;BME280;61846;52.970;-3.168;2022-11-03T00:43:26;99172.58;;;11.54;42.62
73566;BME280;61846;52.970;-3.168;2022-11-03T00:45:50;99162.97;;;11.21;43.62
73566;BME280;61846;52.970;-3.168;2022-11-03T00:48:16;99163.47;;;12.13;41.46
73566;BME280;61846;52.970;-3.168;2022-11-03T00:50:41;99157.52;;;12.01;41.66
73566;BME280;61846;52.970;-3.168;2022-11-03T00:53:07;99150.45;;;12.12;41.31
73566;BME280;61846;52.970;-3.168;2022-11-03T00:55:32;99149.76;;;12.19;41.37
73566;BME280;61846;52.970;-3.168;2022-11-03T00:57:58;99142.90;;;11.05;42.96
73566;BME280;61846;52.970;-3.168;2022-11-03T01:00:23;99135.56;;;11.72;42.53
73566;BME280;61846;52.970;-3.168;2022-11-03T01:02:49;99132.64;;;12.74;40.08
73566;BME280;61846;52.970;-3.168;2022-11-03T01:05:14;99131.42;;;12.69;39.82
73566;BME280;61846;52.970;-3.168;2022-11-03T01:07:40;99142.04;;;12.49;40.28
73566;BME280;61846;52.970;-3.168;2022-11-03T01:10:06;99136.89;;;12.88;39.20
73566;BME280;61846;52.970;-3.168;2022-11-03T01:12:31;99131.75;;;12.84;39.52
73566;BME280;61846;52.970;-3.168;2022-11-03T01:14:56;99132.87;;;12.15;39.55
73566;BME280;61846;52.970;-3.168;2022-11-03T01:17:23;99140.61;;;12.70;39.38
73566;BME280;61846;52.970;-3.168;2022-11-03T01:19:47;99144.44;;;12.87;38.85
73566;BME280;61846;52.970;-3.168;2022-11-03T01:22:14;99150.33;;;12.85;38.86
73566;BME280;61846;52.970;-3.168;2022-11-03T01:24:39;99139.92;;;12.71;39.81
73566;BME280;61846;52.970;-3.168;2022-11-03T01:27:04;99138.52;;;11.63;41.77
73566;BME280;61846;52.970;-3.168;2022-11-03T01:29:29;99145.49;;;12.50;40.00
73566;BME280;61846;52.970;-3.168;2022-11-03T01:31:55;99148.21;;;13.43;38.44
73566;BME280;61846;52.970;-3.168;2022-11-03T01:34:20;99136.54;;;13.81;37.87
73566;BME280;61846;52.970;-3.168;2022-11-03T01:36:46;99128.70;;;13.34;37.92
73566;BME280;61846;52.970;-3.168;2022-11-03T01:39:13;99127.89;;;13.41;38.74
73566;BME280;61846;52.970;-3.168;2022-11-03T01:41:37;99130.34;;;12.97;38.45
73566;BME280;61846;52.970;-3.168;2022-11-03T01:46:28;99132.19;;;13.93;36.75
73566;BME280;61846;52.970;-3.168;2022-11-03T01:48:58;99134.70;;;14.03;37.05
73566;BME280;61846;52.970;-3.168;2022-11-03T01:51:21;99134.86;;;13.52;37.19
73566;BME280;61846;52.970;-3.168;2022-11-03T01:53:46;99123.05;;;13.99;37.09
73566;BME280;61846;52.970;-3.168;2022-11-03T01:56:11;99123.48;;;14.19;36.47
73566;BME280;61846;52.970;-3.168;2022-11-03T01:58:38;99128.40;;;14.22;36.67
73566;BME280;61846;52.970;-3.168;2022-11-03T02:01:01;99132.56;;;14.63;35.77
73566;BME280;61846;52.970;-3.168;2022-11-03T02:03:28;99122.67;;;14.23;36.29
73566;BME280;61846;52.970;-3.168;2022-11-03T02:05:52;99119.74;;;14.24;36.26
73566;BME280;61846;52.970;-3.168;2022-11-03T02:08:21;99121.25;;;14.29;36.26
73566;BME280;61846;52.970;-3.168;2022-11-03T02:10:45;99117.49;;;14.15;36.52
73566;BME280;61846;52.970;-3.168;2022-11-03T02:13:14;99115.67;;;14.03;36.59
73566;BME280;61846;52.970;-3.168;2022-11-03T02:15:34;99125.16;;;14.41;36.13
73566;BME280;61846;52.970;-3.168;2022-11-03T02:17:59;99123.50;;;14.28;36.20
73566;BME280;61846;52.970;-3.168;2022-11-03T02:20:27;99115.97;;;14.39;35.29
73566;BME280;61846;52.970;-3.168;2022-11-03T02:23:01;99108.85;;;14.92;35.44
73566;BME280;61846;52.970;-3.168;2022-11-03T02:27:42;99119.99;;;14.48;37.03
73566;BME280;61846;52.970;-3.168;2022-11-03T02:30:08;99126.56;;;14.09;37.47
73566;BME280;61846;52.970;-3.168;2022-11-03T02:32:38;99125.29;;;14.22;37.25
73566;BME280;61846;52.970;-3.168;2022-11-03T02:35:02;99122.56;;;14.52;37.38
73566;BME280;61846;52.970;-3.168;2022-11-03T02:37:27;99111.38;;;14.52;37.48
73566;BME280;61846;52.970;-3.168;2022-11-03T02:39:53;99114.44;;;14.51;37.40
73566;BME280;61846;52.970;-3.168;2022-11-03T02:42:16;99128.62;;;14.14;37.77
73566;BME280;61846;52.970;-3.168;2022-11-03T02:44:41;99119.55;;;13.98;38.38
73566;BME280;61846;52.970;-3.168;2022-11-03T02:47:09;99113.64;;;14.07;38.37
73566;BME280;61846;52.970;-3.168;2022-11-03T02:49:31;99118.05;;;14.10;38.27
73566;BME280;61846;52.970;-3.168;2022-11-03T02:51:59;99126.47;;;12.55;40.08
73566;BME280;61846;52.970;-3.168;2022-11-03T02:54:25;99117.08;;;13.08;39.25
73566;BME280;61846;52.970;-3.168;2022-11-03T02:56:50;99119.42;;;13.82;38.90
73566;BME280;61846;52.970;-3.168;2022-11-03T02:59:15;99123.79;;;13.85;38.40
73566;BME280;61846;52.970;-3.168;2022-11-03T03:01:41;99128.55;;;13.98;38.62
73566;BME280;61846;52.970;-3.168;2022-11-03T03:04:07;99130.64;;;13.47;39.94
73566;BME280;61846;52.970;-3.168;2022-11-03T03:06:35;99124.51;;;13.74;39.75
73566;BME280;61846;52.970;-3.168;2022-11-03T03:08:59;99125.46;;;13.76;39.46
73566;BME280;61846;52.970;-3.168;2022-11-03T03:11:21;99125.86;;;13.41;39.88
73566;BME280;61846;52.970;-3.168;2022-11-03T03:13:46;99108.99;;;13.59;39.84
73566;BME280;61846;52.970;-3.168;2022-11-03T03:16:16;99123.60;;;13.62;39.39
73566;BME280;61846;52.970;-3.168;2022-11-03T03:18:46;99115.49;;;13.84;39.29
73566;BME280;61846;52.970;-3.168;2022-11-03T03:21:06;99115.17;;;13.52;39.34
73566;BME280;61846;52.970;-3.168;2022-11-03T03:23:32;99106.89;;;13.76;38.75
73566;BME280;61846;52.970;-3.168;2022-11-03T03:25:58;99109.20;;;14.05;38.96
73566;BME280;61846;52.970;-3.168;2022-11-03T03:28:23;99109.77;;;13.80;39.11
73566;BME280;61846;52.970;-3.168;2022-11-03T03:30:46;99107.08;;;13.68;39.43
73566;BME280;61846;52.970;-3.168;2022-11-03T03:33:12;99103.59;;;14.13;39.47
73566;BME280;61846;52.970;-3.168;2022-11-03T03:35:39;99106.76;;;13.61;39.81
73566;BME280;61846;52.970;-3.168;2022-11-03T03:38:04;99109.52;;;13.62;39.42
73566;BME280;61846;52.970;-3.168;2022-11-03T03:40:30;99106.29;;;13.61;39.63
73566;BME280;61846;52.970;-3.168;2022-11-03T03:42:54;99099.89;;;14.07;39.28
73566;BME280;61846;52.970;-3.168;2022-11-03T03:45:19;99097.71;;;14.08;39.31
73566;BME280;61846;52.970;-3.168;2022-11-03T03:47:44;99109.47;;;13.51;39.78
73566;BME280;61846;52.970;-3.168;2022-11-03T03:50:10;99112.74;;;13.20;39.99
73566;BME280;61846;52.970;-3.168;2022-11-03T03:52:36;99112.59;;;13.02;40.97
73566;BME280;61846;52.970;-3.168;2022-11-03T03:55:01;99108.35;;;13.70;40.86
73566;BME280;61846;52.970;-3.168;2022-11-03T03:57:29;99105.60;;;13.61;40.38
73566;BME280;61846;52.970;-3.168;2022-11-03T03:59:52;99101.21;;;13.68;40.23
73566;BME280;61846;52.970;-3.168;2022-11-03T04:02:17;99100.75;;;13.51;40.00
73566;BME280;61846;52.970;-3.168;2022-11-03T04:04:43;99098.46;;;14.07;39.88
73566;BME280;61846;52.970;-3.168;2022-11-03T04:07:09;99095.41;;;14.18;39.85
73566;BME280;61846;52.970;-3.168;2022-11-03T04:09:34;99097.46;;;13.51;40.15
73566;BME280;61846;52.970;-3.168;2022-11-03T04:12:00;99102.48;;;12.97;40.74
73566;BME280;61846;52.970;-3.168;2022-11-03T04:14:25;99098.71;;;13.59;40.19
73566;BME280;61846;52.970;-3.168;2022-11-03T04:16:50;99099.12;;;13.65;39.99
73566;BME280;61846;52.970;-3.168;2022-11-03T04:19:16;99101.48;;;13.36;40.60
73566;BME280;61846;52.970;-3.168;2022-11-03T04:21:42;99104.57;;;13.43;40.55
73566;BME280;61846;52.970;-3.168;2022-11-03T04:24:07;99105.33;;;13.14;40.58
73566;BME280;61846;52.970;-3.168;2022-11-03T04:26:33;99093.57;;;13.48;40.28
73566;BME280;61846;52.970;-3.168;2022-11-03T04:28:59;99089.98;;;13.32;40.59
73566;BME280;61846;52.970;-3.168;2022-11-03T04:31:25;99091.08;;;13.19;40.83
73566;BME280;61846;52.970;-3.168;2022-11-03T04:33:50;99086.53;;;13.44;40.62
73566;BME280;61846;52.970;-3.168;2022-11-03T04:36:18;99088.08;;;13.11;41.25
73566;BME280;61846;52.970;-3.168;2022-11-03T04:38:42;99086.89;;;13.45;41.29
73566;BME280;61846;52.970;-3.168;2022-11-03T04:41:12;99079.93;;;13.31;41.03
73566;BME280;61846;52.970;-3.168;2022-11-03T04:43:33;99082.63;;;13.21;41.29
73566;BME280;61846;52.970;-3.168;2022-11-03T04:45:57;99078.93;;;13.20;41.86
73566;BME280;61846;52.970;-3.168;2022-11-03T04:48:24;99077.62;;;13.51;40.92
73566;BME280;61846;52.970;-3.168;2022-11-03T04:50:51;99081.93;;;13.01;41.62
73566;BME280;61846;52.970;-3.168;2022-11-03T04:53:16;99083.53;;;13.44;41.55
73566;BME280;61846;52.970;-3.168;2022-11-03T04:55:40;99083.34;;;13.72;40.99
73566;BME280;61846;52.970;-3.168;2022-11-03T04:58:12;99085.08;;;13.33;41.12
73566;BME280;61846;52.970;-3.168;2022-11-03T05:00:30;99079.59;;;13.84;40.54
73566;BME280;61846;52.970;-3.168;2022-11-03T05:02:56;99073.20;;;13.57;40.54
73566;BME280;61846;52.970;-3.168;2022-11-03T05:05:23;99073.36;;;13.04;41.27
73566;BME280;61846;52.970;-3.168;2022-11-03T05:07:49;99071.10;;;13.16;41.08
73566;BME280;61846;52.970;-3.168;2022-11-03T05:10:15;99073.60;;;13.38;40.70
73566;BME280;61846;52.970;-3.168;2022-11-03T05:12:38;99075.95;;;13.22;41.12
73566;BME280;61846;52.970;-3.168;2022-11-03T05:15:09;99070.71;;;13.07;41.51
73566;BME280;61846;52.970;-3.168;2022-11-03T05:17:29;99070.16;;;12.77;41.85
73566;BME280;61846;52.970;-3.168;2022-11-03T05:19:58;99075.14;;;12.64;42.63
73566;BME280;61846;52.970;-3.168;2022-11-03T05:22:21;99067.37;;;12.54;42.39
73566;BME280;61846;52.970;-3.168;2022-11-03T05:24:45;99063.52;;;12.52;42.81
73566;BME280;61846;52.970;-3.168;2022-11-03T05:27:14;99064.20;;;12.41;42.67
73566;BME280;61846;52.970;-3.168;2022-11-03T05:29:38;99064.66;;;13.25;41.48
73566;BME280;61846;52.970;-3.168;2022-11-03T05:32:07;99063.98;;;12.94;41.92
73566;BME280;61846;52.970;-3.168;2022-11-03T05:34:34;99058.56;;;13.16;41.81
73566;BME280;61846;52.970;-3.168;2022-11-03T05:36:54;99062.83;;;12.47;42.81
73566;BME280;61846;52.970;-3.168;2022-11-03T05:39:28;99060.00;;;12.95;42.04
73566;BME280;61846;52.970;-3.168;2022-11-03T05:41:44;99060.25;;;13.10;41.74
73566;BME280;61846;52.970;-3.168;2022-11-03T05:44:21;99055.17;;;12.96;41.90
73566;BME280;61846;52.970;-3.168;2022-11-03T05:46:37;99050.62;;;13.24;41.36
73566;BME280;61846;52.970;-3.168;2022-11-03T05:49:02;99049.76;;;13.07;41.57
73566;BME280;61846;52.970;-3.168;2022-11-03T05:51:30;99040.77;;;12.66;42.17
73566;BME280;61846;52.970;-3.168;2022-11-03T05:53:54;99033.29;;;13.15;41.33
73566;BME280;61846;52.970;-3.168;2022-11-03T05:56:19;99033.24;;;12.48;42.35
73566;BME280;61846;52.970;-3.168;2022-11-03T05:58:44;99029.67;;;12.90;41.61
73566;BME280;61846;52.970;-3.168;2022-11-03T06:01:12;99025.71;;;13.15;41.60
73566;BME280;61846;52.970;-3.168;2022-11-03T06:03:35;99024.72;;;12.26;42.85
73566;BME280;61846;52.970;-3.168;2022-11-03T06:06:01;99029.09;;;11.91;43.72
73566;BME280;61846;52.970;-3.168;2022-11-03T06:08:27;99027.38;;;12.60;42.50
73566;BME280;61846;52.970;-3.168;2022-11-03T06:10:53;99025.75;;;12.78;42.10
73566;BME280;61846;52.970;-3.168;2022-11-03T06:13:19;99026.37;;;12.86;42.50
73566;BME280;61846;52.970;-3.168;2022-11-03T06:15:43;99024.72;;;12.96;41.92
73566;BME280;61846;52.970;-3.168;2022-11-03T06:18:13;99025.51;;;12.89;42.00
73566;BME280;61846;52.970;-3.168;2022-11-03T06:20:34;99030.05;;;12.76;42.18
73566;BME280;61846;52.970;-3.168;2022-11-03T06:22:59;99030.75;;;13.04;41.68
73566;BME280;61846;52.970;-3.168;2022-11-03T06:25:28;99031.99;;;13.21;41.59
73566;BME280;61846;52.970;-3.168;2022-11-03T06:27:49;99030.36;;;12.51;42.27
73566;BME280;61846;52.970;-3.168;2022-11-03T06:30:21;99026.85;;;12.33;42.77
73566;BME280;61846;52.970;-3.168;2022-11-03T06:32:40;99030.13;;;12.98;41.95
73566;BME280;61846;52.970;-3.168;2022-11-03T06:35:09;99035.21;;;12.87;42.09
73566;BME280;61846;52.970;-3.168;2022-11-03T06:37:32;99040.96;;;12.40;43.20
73566;BME280;61846;52.970;-3.168;2022-11-03T06:39:59;99043.59;;;11.86;43.66
73566;BME280;61846;52.970;-3.168;2022-11-03T06:42:22;99042.49;;;12.62;42.25
73566;BME280;61846;52.970;-3.168;2022-11-03T06:44:49;99044.19;;;12.15;42.93
73566;BME280;61846;52.970;-3.168;2022-11-03T06:47:20;99040.70;;;12.96;41.91
73566;BME280;61846;52.970;-3.168;2022-11-03T06:49:39;99039.14;;;12.38;42.12
73566;BME280;61846;52.970;-3.168;2022-11-03T06:52:13;99039.58;;;12.79;42.53
73566;BME280;61846;52.970;-3.168;2022-11-03T06:54:30;99033.89;;;12.48;42.41
73566;BME280;61846;52.970;-3.168;2022-11-03T06:56:56;99039.84;;;12.15;42.71
73566;BME280;61846;52.970;-3.168;2022-11-03T06:59:21;99037.90;;;11.86;42.93
73566;BME280;61846;52.970;-3.168;2022-11-03T07:01:51;99028.15;;;12.46;42.31
73566;BME280;61846;52.970;-3.168;2022-11-03T07:04:15;99031.35;;;12.36;42.54
73566;BME280;61846;52.970;-3.168;2022-11-03T07:06:38;99031.77;;;11.90;42.94
73566;BME280;61846;52.970;-3.168;2022-11-03T07:09:05;99030.62;;;11.44;44.14
73566;BME280;61846;52.970;-3.168;2022-11-03T07:11:31;99022.57;;;11.74;44.17
73566;BME280;61846;52.970;-3.168;2022-11-03T07:13:57;99022.47;;;11.93;43.40
73566;BME280;61846;52.970;-3.168;2022-11-03T07:16:26;99022.08;;;11.85;43.70
73566;BME280;61846;52.970;-3.168;2022-11-03T07:18:47;99017.77;;;12.05;43.25
73566;BME280;61846;52.970;-3.168;2022-11-03T07:21:23;99017.81;;;11.79;43.08
73566;BME280;61846;52.970;-3.168;2022-11-03T07:23:37;99021.97;;;11.76;43.46
73566;BME280;61846;52.970;-3.168;2022-11-03T07:26:04;99022.00;;;11.52;44.28
73566;BME280;61846;52.970;-3.168;2022-11-03T07:28:32;99019.64;;;12.57;42.53
73566;BME280;61846;52.970;-3.168;2022-11-03T07:30:54;99017.47;;;12.52;42.30
73566;BME280;61846;52.970;-3.168;2022-11-03T07:33:22;99019.94;;;12.20;42.64
73566;BME280;61846;52.970;-3.168;2022-11-03T07:35:47;99015.27;;;12.67;42.13
73566;BME280;61846;52.970;-3.168;2022-11-03T07:38:14;99014.77;;;12.63;42.22
73566;BME280;61846;52.970;-3.168;2022-11-03T07:40:37;99024.75;;;11.42;43.93
73566;BME280;61846;52.970;-3.168;2022-11-03T07:43:10;99022.50;;;11.88;43.62
73566;BME280;61846;52.970;-3.168;2022-11-03T07:45:36;99023.11;;;12.11;42.53
73566;BME280;61846;52.970;-3.168;2022-11-03T07:47:53;99020.98;;;12.50;42.05
73566;BME280;61846;52.970;-3.168;2022-11-03T07:50:19;99018.63;;;12.63;41.90
73566;BME280;61846;52.970;-3.168;2022-11-03T07:52:44;99023.18;;;11.97;42.78
73566;BME280;61846;52.970;-3.168;2022-11-03T07:55:12;99021.11;;;12.45;42.24
73566;BME280;61846;52.970;-3.168;2022-11-03T07:57:35;99028.63;;;12.08;42.64
73566;BME280;61846;52.970;-3.168;2022-11-03T08:00:04;99031.74;;;12.20;42.36
73566;BME280;61846;52.970;-3.168;2022-11-03T08:02:30;99031.55;;;12.51;42.29
73566;BME280;61846;52.970;-3.168;2022-11-03T08:04:52;99029.20;;;11.48;42.04
73566;BME280;61846;52.970;-3.168;2022-11-03T08:07:17;99032.05;;;12.25;41.87
73566;BME280;61846;52.970;-3.168;2022-11-03T08:09:43;99025.98;;;12.25;42.08
73566;BME280;61846;52.970;-3.168;2022-11-03T08:12:08;99017.17;;;12.46;42.11
73566;BME280;61846;52.970;-3.168;2022-11-03T08:14:34;99014.00;;;12.55;42.50
73566;BME280;61846;52.970;-3.168;2022-11-03T08:17:00;99019.18;;;12.13;42.94
73566;BME280;61846;52.970;-3.168;2022-11-03T08:19:25;99018.62;;;12.36;42.45
73566;BME280;61846;52.970;-3.168;2022-11-03T08:21:51;99016.17;;;12.36;42.29
73566;BME280;61846;52.970;-3.168;2022-11-03T08:24:16;99010.43;;;12.13;43.20
73566;BME280;61846;52.970;-3.168;2022-11-03T08:26:42;99014.63;;;12.13;43.26
73566;BME280;61846;52.970;-3.168;2022-11-03T08:29:08;99010.23;;;12.37;42.81
73566;BME280;61846;52.970;-3.168;2022-11-03T08:31:33;99011.79;;;12.33;43.19
73566;BME280;61846;52.970;-3.168;2022-11-03T08:33:59;99006.59;;;12.40;42.74
73566;BME280;61846;52.970;-3.168;2022-11-03T08:36:24;99007.68;;;12.76;42.68
73566;BME280;61846;52.970;-3.168;2022-11-03T08:38:50;99008.29;;;12.45;43.44
73566;BME280;61846;52.970;-3.168;2022-11-03T08:41:15;99004.61;;;12.53;43.63
73566;BME280;61846;52.970;-3.168;2022-11-03T08:43:41;98993.63;;;12.46;43.45
73566;BME280;61846;52.970;-3.168;2022-11-03T08:46:07;98994.57;;;12.25;44.08
73566;BME280;61846;52.970;-3.168;2022-11-03T08:48:32;98987.67;;;12.43;43.37
73566;BME280;61846;52.970;-3.168;2022-11-03T08:50:58;98980.42;;;12.23;43.76
73566;BME280;61846;52.970;-3.168;2022-11-03T08:53:25;98976.90;;;12.52;43.87
73566;BME280;61846;52.970;-3.168;2022-11-03T08:55:49;98972.67;;;13.01;42.94
73566;BME280;61846;52.970;-3.168;2022-11-03T08:58:14;98968.71;;;13.10;42.90
73566;BME280;61846;52.970;-3.168;2022-11-03T09:00:40;98969.25;;;13.08;41.95
73566;BME280;61846;52.970;-3.168;2022-11-03T09:03:06;98965.62;;;12.95;42.13
73566;BME280;61846;52.970;-3.168;2022-11-03T09:05:31;98961.32;;;13.00;42.12
73566;BME280;61846;52.970;-3.168;2022-11-03T09:07:57;98960.88;;;12.29;43.01
73566;BME280;61846;52.970;-3.168;2022-11-03T09:10:22;98963.13;;;12.79;42.89
73566;BME280;61846;52.970;-3.168;2022-11-03T09:12:48;98957.65;;;12.35;42.79
73566;BME280;61846;52.970;-3.168;2022-11-03T09:15:13;98956.72;;;12.83;42.99
73566;BME280;61846;52.970;-3.168;2022-11-03T09:17:39;98950.25;;;13.12;42.93
73566;BME280;61846;52.970;-3.168;2022-11-03T09:20:05;98947.97;;;12.52;43.62
73566;BME280;61846;52.970;-3.168;2022-11-03T09:22:30;98943.25;;;12.93;42.98
73566;BME280;61846;52.970;-3.168;2022-11-03T09:24:56;98942.00;;;12.81;43.56
73566;BME280;61846;52.970;-3.168;2022-11-03T09:27:21;98940.68;;;12.57;43.67
73566;BME280;61846;52.970;-3.168;2022-11-03T09:29:47;98941.12;;;12.62;44.45
73566;BME280;61846;52.970;-3.168;2022-11-03T09:32:12;98941.66;;;12.36;45.04
73566;BME280;61846;52.970;-3.168;2022-11-03T09:34:37;98942.23;;;12.92;43.86
73566;BME280;61846;52.970;-3.168;2022-11-03T09:37:03;98936.92;;;13.70;41.29
73566;BME280;61846;52.970;-3.168;2022-11-03T09:39:28;98937.47;;;13.59;42.61
73566;BME280;61846;52.970;-3.168;2022-11-03T09:41:55;98938.99;;;14.15;40.60
73566;BME280;61846;52.970;-3.168;2022-11-03T09:44:19;98941.61;;;14.31;40.75
73566;BME280;61846;52.970;-3.168;2022-11-03T09:46:44;98939.35;;;13.88;40.95
73566;BME280;61846;52.970;-3.168;2022-11-03T09:49:11;98933.07;;;14.54;40.56
73566;BME280;61846;52.970;-3.168;2022-11-03T09:51:35;98937.01;;;14.59;40.07
73566;BME280;61846;52.970;-3.168;2022-11-03T09:54:03;98938.28;;;14.64;39.65
73566;BME280;61846;52.970;-3.168;2022-11-03T09:56:26;98936.93;;;14.48;39.99
73566;BME280;61846;52.970;-3.168;2022-11-03T09:58:52;98936.43;;;15.40;37.99
73566;BME280;61846;52.970;-3.168;2022-11-03T10:01:17;98933.73;;;15.95;37.15
73566;BME280;61846;52.970;-3.168;2022-11-03T10:03:43;98933.35;;;15.63;36.08
73566;BME280;61846;52.970;-3.168;2022-11-03T10:06:08;98932.33;;;16.25;35.37
73566;BME280;61846;52.970;-3.168;2022-11-03T10:08:36;98931.44;;;16.43;35.65
73566;BME280;61846;52.970;-3.168;2022-11-03T10:10:59;98931.83;;;16.50;35.97
73566;BME280;61846;52.970;-3.168;2022-11-03T10:13:29;98930.85;;;16.43;35.75
73566;BME280;61846;52.970;-3.168;2022-11-03T10:15:50;98930.54;;;16.31;33.04
73566;BME280;61846;52.970;-3.168;2022-11-03T10:18:15;98937.25;;;15.35;34.45
73566;BME280;61846;52.970;-3.168;2022-11-03T10:20:41;98941.75;;;15.24;34.27
73566;BME280;61846;52.970;-3.168;2022-11-03T10:23:07;98940.85;;;13.61;36.05
73566;BME280;61846;52.970;-3.168;2022-11-03T10:25:35;98945.27;;;13.83;36.31
73566;BME280;61846;52.970;-3.168;2022-11-03T10:28:10;98942.74;;;14.12;35.34
73566;BME280;61846;52.970;-3.168;2022-11-03T10:30:23;98941.64;;;13.32;36.48
73566;BME280;61846;52.970;-3.168;2022-11-03T10:32:48;98941.53;;;13.74;35.38
73566;BME280;61846;52.970;-3.168;2022-11-03T10:37:39;98938.61;;;14.45;34.58
73566;BME280;61846;52.970;-3.168;2022-11-03T10:40:15;98939.08;;;14.29;35.22
73566;BME280;61846;52.970;-3.168;2022-11-03T10:42:30;98937.27;;;13.37;36.47
73566;BME280;61846;52.970;-3.168;2022-11-03T10:45:09;98936.03;;;14.19;35.27
73566;BME280;61846;52.970;-3.168;2022-11-03T10:47:25;98936.51;;;13.34;37.42
73566;BME280;61846;52.970;-3.168;2022-11-03T10:49:46;98935.96;;;14.46;35.45
73566;BME280;61846;52.970;-3.168;2022-11-03T10:52:17;98937.39;;;14.16;35.39
73566;BME280;61846;52.970;-3.168;2022-11-03T10:54:37;98936.70;;;15.07;35.22
73566;BME280;61846;52.970;-3.168;2022-11-03T10:57:09;98934.14;;;13.73;37.19
73566;BME280;61846;52.970;-3.168;2022-11-03T10:59:31;98934.17;;;15.08;34.89
73566;BME280;61846;52.970;-3.168;2022-11-03T11:01:55;98933.25;;;13.96;36.57
73566;BME280;61846;52.970;-3.168;2022-11-03T11:04:20;98929.80;;;15.08;34.92
73566;BME280;61846;52.970;-3.168;2022-11-03T11:06:45;98927.63;;;14.72;35.43
73566;BME280;61846;52.970;-3.168;2022-11-03T11:09:13;98925.59;;;14.94;35.20
73566;BME280;61846;52.970;-3.168;2022-11-03T11:11:36;98924.02;;;15.14;34.60
73566;BME280;61846;52.970;-3.168;2022-11-03T11:14:20;98918.48;;;15.72;34.43
73566;BME280;61846;52.970;-3.168;2022-11-03T11:18:59;98906.91;;;15.08;34.90
73566;BME280;61846;52.970;-3.168;2022-11-03T11:23:44;98902.97;;;15.10;34.99
73566;BME280;61846;52.970;-3.168;2022-11-03T11:26:15;98906.61;;;15.26;35.20
73566;BME280;61846;52.970;-3.168;2022-11-03T11:28:35;98905.36;;;15.46;35.27
73566;BME280;61846;52.970;-3.168;2022-11-03T11:31:00;98898.61;;;15.70;34.58
73566;BME280;61846;52.970;-3.168;2022-11-03T11:33:27;98898.51;;;16.06;34.60
73566;BME280;61846;52.970;-3.168;2022-11-03T11:40:50;98903.23;;;15.46;34.12
73566;BME280;61846;52.970;-3.168;2022-11-03T11:43:24;98900.66;;;15.74;34.54
73566;BME280;61846;52.970;-3.168;2022-11-03T11:47:58;98894.85;;;16.09;33.51
73566;BME280;61846;52.970;-3.168;2022-11-03T11:50:26;98897.79;;;15.79;33.19
73566;BME280;61846;52.970;-3.168;2022-11-03T11:52:55;98899.56;;;15.83;33.16
73566;BME280;61846;52.970;-3.168;2022-11-03T11:55:17;98895.38;;;15.95;34.49
73566;BME280;61846;52.970;-3.168;2022-11-03T11:57:40;98884.34;;;16.12;34.50
73566;BME280;61846;52.970;-3.168;2022-11-03T12:00:17;98886.90;;;15.51;34.97
73566;BME280;61846;52.970;-3.168;2022-11-03T12:02:31;98882.05;;;15.70;34.13
73566;BME280;61846;52.970;-3.168;2022-11-03T12:04:58;98876.71;;;15.97;33.77
73566;BME280;61846;52.970;-3.168;2022-11-03T12:07:30;98877.89;;;15.70;33.59
73566;BME280;61846;52.970;-3.168;2022-11-03T12:09:48;98874.87;;;16.14;32.97
73566;BME280;61846;52.970;-3.168;2022-11-03T12:14:39;98876.39;;;15.34;38.67
73566;BME280;61846;52.970;-3.168;2022-11-03T12:19:37;98861.30;;;15.08;34.09
73566;BME280;61846;52.970;-3.168;2022-11-03T12:21:56;98855.56;;;16.03;33.25
73566;BME280;61846;52.970;-3.168;2022-11-03T12:24:25;98864.15;;;14.83;33.50
73566;BME280;61846;52.970;-3.168;2022-11-03T12:26:46;98864.31;;;15.77;33.22
73566;BME280;61846;52.970;-3.168;2022-11-03T12:29:11;98867.05;;;15.58;32.97
73566;BME280;61846;52.970;-3.168;2022-11-03T12:31:36;98872.10;;;15.37;33.76
73566;BME280;61846;52.970;-3.168;2022-11-03T12:34:02;98868.69;;;13.18;36.93
73566;BME280;61846;52.970;-3.168;2022-11-03T12:36:27;98869.45;;;14.10;35.76
73566;BME280;61846;52.970;-3.168;2022-11-03T12:38:53;98875.55;;;14.64;35.20
73566;BME280;61846;52.970;-3.168;2022-11-03T12:41:19;98870.99;;;15.02;34.38
73566;BME280;61846;52.970;-3.168;2022-11-03T12:43:44;98871.95;;;13.72;36.66
73566;BME280;61846;52.970;-3.168;2022-11-03T12:46:10;98870.12;;;14.02;36.36
73566;BME280;61846;52.970;-3.168;2022-11-03T12:48:35;98866.53;;;14.25;35.75
73566;BME280;61846;52.970;-3.168;2022-11-03T12:51:01;98857.07;;;14.90;34.53
73566;BME280;61846;52.970;-3.168;2022-11-03T12:53:26;98846.77;;;14.86;34.27
73566;BME280;61846;52.970;-3.168;2022-11-03T12:55:52;98835.70;;;15.56;33.54
73566;BME280;61846;52.970;-3.168;2022-11-03T12:58:17;98833.86;;;16.02;32.83
73566;BME280;61846;52.970;-3.168;2022-11-03T13:00:43;98828.37;;;15.96;33.33
73566;BME280;61846;52.970;-3.168;2022-11-03T13:03:08;98824.38;;;15.86;33.20
73566;BME280;61846;52.970;-3.168;2022-11-03T13:05:34;98821.61;;;15.74;35.91